Berta — V2BQ6 — position and weather

sailwx.info

Track history (hours):
 
Tides and Currents Weather Stations Pressure Air Temp Water Temp Dewpoint Dewpoint Depression Visibility Wind Speed Wind Dir Waves Ship Positions

Berta

Last reported at 2014-Jul-28 16:20 UTC. Time now 2014-Jul-28 18:28 UTC.
Position N 58°00' E 006°25'.

Length 107 m; draft 6.1 m.

Type: Cargo ship. MMSI: 304586000.

Date/timePositionNaut miles runAvg speedWind from/ knotsBaromVisibWave heightAir tempDewpointWater temp
2014-Jul-28 16:20N 58°00' E 006°25'13 2.0
2014-Jul-28 09:34N 58°13' E 006°29'1212.1
2014-Jul-28 08:33N 58°19' E 006°09'1111.2
2014-Jul-28 07:33N 58°25' E 005°50'1110.6
2014-Jul-28 06:30N 58°34' E 005°36'1212.9
2014-Jul-28 05:33N 58°44' E 005°25'1313.1
2014-Jul-28 04:33N 58°57' E 005°18'1111.5
2014-Jul-28 03:33N 59°08' E 005°27'1413.7
2014-Jul-28 02:34N 59°17' E 005°46'1312.6
2014-Jul-28 01:33N 59°24' E 006°07'0 0.0
2014-Jul-27 18:15N 59°24' E 006°07'913.0
2014-Jul-27 17:34N 59°19' E 005°52'1414.4
2014-Jul-27 16:33N 59°09' E 005°32'1010.5
2014-Jul-27 15:33N 59°06' E 005°12'1414.0
2014-Jul-27 14:32N 59°19' E 004°60'5612.9
2014-Jul-27 10:14N 60°14' E 005°09'811.6
2014-Jul-27 09:32N 60°23' E 005°10'4 4.3
2014-Jul-27 08:31N 60°23' E 005°19'0 0.0
2014-Jul-27 07:32N 60°23' E 005°19'0 0.0
2014-Jul-27 06:32N 60°23' E 005°19'0 0.0
2014-Jul-27 05:32N 60°23' E 005°19'0 0.0
2014-Jul-27 04:32N 60°23' E 005°19'0 0.0
2014-Jul-27 03:32N 60°23' E 005°19'0 0.0
2014-Jul-27 02:33N 60°23' E 005°19'0 0.0
2014-Jul-27 01:33N 60°23' E 005°19'0 0.0
2014-Jul-27 00:33N 60°23' E 005°19'0 0.0
2014-Jul-26 23:33N 60°23' E 005°19'0 0.0
2014-Jul-26 22:33N 60°23' E 005°19'1 1.0
2014-Jul-26 21:33N 60°24' E 005°17'9 9.0
2014-Jul-26 20:33N 60°16' E 005°10'5312.7
2014-Jul-26 16:24N 59°23' E 004°56'1113.4
2014-Jul-26 15:34N 59°12' E 005°02'9 9.4
2014-Jul-26 14:33N 59°09' E 005°20'1110.9
2014-Jul-26 13:33N 59°20' E 005°18'0 0.0
2014-Jul-26 12:21N 59°20' E 005°18'0 0.0
2014-Jul-26 11:24N 59°20' E 005°18'0 0.0
2014-Jul-26 10:27N 59°20' E 005°18'0 0.0
2014-Jul-26 09:30N 59°20' E 005°18'0 0.0
2014-Jul-26 08:21N 59°20' E 005°18'0 0.0
2014-Jul-26 07:30N 59°20' E 005°18'0 0.0
2014-Jul-26 06:12N 59°20' E 005°18'2 2.8
2014-Jul-26 05:34N 59°19' E 005°20'1211.9
2014-Jul-26 04:34N 59°08' E 005°27'1212.1
2014-Jul-26 03:33N 58°56' E 005°34'1 0.9
2014-Jul-26 02:31N 58°55' E 005°35'0 0.0
2014-Jul-26 01:31N 58°55' E 005°35'0 0.0
2014-Jul-26 00:31N 58°55' E 005°35'0 0.0
2014-Jul-25 23:31N 58°55' E 005°35'0 0.5
2014-Jul-25 22:33N 58°56' E 005°35'1010.4
2014-Jul-25 21:33N 58°47' E 005°25'1413.8
2014-Jul-25 20:33N 58°33' E 005°22'1313.0
2014-Jul-25 19:33N 58°20' E 005°27'1413.6
2014-Jul-25 18:34N 58°07' E 005°34'20513.3
2014-Jul-25 03:06N 54°49' E 007°09'713.9
2014-Jul-25 02:34N 54°41' E 007°13'1414.0
2014-Jul-25 01:33N 54°28' E 007°20'1414.3
2014-Jul-25 00:33N 54°14' E 007°27'1413.8
2014-Jul-24 23:33N 54°02' E 007°38'1110.8
2014-Jul-24 22:33N 53°53' E 007°48'1313.2
2014-Jul-24 21:33N 53°48' E 008°09'1212.3
2014-Jul-24 20:33N 53°39' E 008°24'6 6.3
2014-Jul-24 19:32N 53°35' E 008°32'0 0.0
2014-Jul-24 18:32N 53°35' E 008°32'0 0.0
2014-Jul-24 17:32N 53°35' E 008°32'0 0.0
2014-Jul-24 16:33N 53°35' E 008°32'0 0.0
2014-Jul-24 15:33N 53°35' E 008°32'5 4.6
2014-Jul-24 14:33N 53°38' E 008°26'1111.4
2014-Jul-24 13:33N 53°46' E 008°11'1211.7
2014-Jul-24 12:33N 53°52' E 007°54'4 1.7
2014-Jul-24 10:19N 53°54' E 007°49'0 0.1
2014-Jul-24 09:16N 53°54' E 007°49'9 8.4
2014-Jul-24 08:14N 53°59' E 007°37'6 9.0
2014-Jul-24 07:33N 54°01' E 007°47'1110.9
2014-Jul-24 06:33N 54°01' E 008°05'1010.3
2014-Jul-24 05:33N 53°60' E 008°22'1211.9
2014-Jul-24 04:33N 53°55' E 008°41'1313.5
2014-Jul-24 03:33N 53°52' E 009°03'1413.5
2014-Jul-24 02:32N 53°46' E 009°24'1212.6
2014-Jul-24 01:33N 53°36' E 009°36'9 9.3
2014-Jul-24 00:33N 53°33' E 009°51'2 2.3
2014-Jul-23 23:32N 53°32' E 009°55'0 0.0
2014-Jul-23 22:32N 53°32' E 009°55'0 0.0
2014-Jul-23 21:29N 53°32' E 009°55'0 0.0
2014-Jul-23 20:32N 53°32' E 009°55'0 0.0
2014-Jul-23 19:29N 53°32' E 009°55'0 0.0
2014-Jul-23 18:29N 53°32' E 009°55'1 0.9
2014-Jul-23 17:33N 53°32' E 009°56'1 1.0
2014-Jul-23 16:28N 53°32' E 009°58'0 0.0
2014-Jul-23 15:32N 53°32' E 009°58'0 0.0
2014-Jul-23 14:32N 53°32' E 009°58'0 0.0
2014-Jul-23 13:30N 53°32' E 009°58'0 0.0
2014-Jul-23 12:33N 53°32' E 009°58'0 0.0
2014-Jul-23 11:30N 53°32' E 009°58'0 0.0
2014-Jul-23 10:28N 53°32' E 009°58'0 0.0
2014-Jul-23 09:28N 53°32' E 009°58'0 0.0
2014-Jul-23 08:28N 53°32' E 009°58'0 0.0
2014-Jul-23 07:28N 53°32' E 009°58'0 0.0
2014-Jul-23 06:28N 53°32' E 009°58'0 0.0
2014-Jul-23 05:31N 53°32' E 009°58'0 0.0
2014-Jul-23 04:32N 53°32' E 009°58'0 0.0
2014-Jul-23 03:31N 53°32' E 009°58'0 0.0
2014-Jul-23 02:31N 53°32' E 009°58'0 0.0
2014-Jul-23 01:31N 53°32' E 009°58'0 0.0
2014-Jul-23 00:31N 53°32' E 009°58'0 0.0
2014-Jul-22 23:31N 53°32' E 009°58'0 0.0
2014-Jul-22 22:31N 53°32' E 009°58'0 0.0
2014-Jul-22 21:31N 53°32' E 009°58'0 0.0
2014-Jul-22 20:31N 53°32' E 009°58'0 0.0
2014-Jul-22 19:31N 53°32' E 009°58'0 0.0
2014-Jul-22 18:31N 53°32' E 009°58'0 0.0
2014-Jul-22 17:31N 53°32' E 009°58'0 0.0
2014-Jul-22 16:28N 53°32' E 009°58'0 0.0
2014-Jul-22 15:28N 53°32' E 009°58'0 0.0
2014-Jul-22 14:32N 53°32' E 009°58'0 0.0
2014-Jul-22 13:32N 53°32' E 009°58'0 0.0
2014-Jul-22 12:32N 53°32' E 009°58'0 0.0
2014-Jul-22 11:32N 53°32' E 009°58'0 0.0
2014-Jul-22 10:32N 53°32' E 009°58'0 0.0
2014-Jul-22 09:30N 53°32' E 009°58'0 0.0
2014-Jul-22 08:33N 53°32' E 009°58'0 0.0
2014-Jul-22 07:30N 53°32' E 009°58'0 0.0
2014-Jul-22 06:30N 53°32' E 009°58'0 0.0
2014-Jul-22 05:27N 53°32' E 009°58'0 0.0
2014-Jul-22 04:33N 53°32' E 009°58'0 0.0
2014-Jul-22 03:33N 53°32' E 009°58'0 0.0
2014-Jul-22 02:32N 53°32' E 009°58'0 0.0
2014-Jul-22 01:32N 53°32' E 009°58'0 0.0
2014-Jul-22 00:32N 53°32' E 009°58'0 0.0
2014-Jul-21 23:32N 53°32' E 009°58'0 0.0
2014-Jul-21 22:32N 53°32' E 009°58'0 0.0
2014-Jul-21 21:32N 53°32' E 009°58'0 0.0
2014-Jul-21 20:32N 53°32' E 009°58'0 0.0
2014-Jul-21 20:17N 53°32' E 009°58'0 0.0
2014-Jul-21 19:32N 53°32' E 009°58'0 0.0
2014-Jul-21 18:32N 53°32' E 009°58'0 0.0
2014-Jul-21 17:33N 53°32' E 009°58'0 0.0
2014-Jul-21 15:33N 53°32' E 009°58'0 0.0
2014-Jul-21 14:33N 53°32' E 009°58'0 0.0
2014-Jul-21 13:33N 53°32' E 009°58'0 0.0
2014-Jul-21 12:33N 53°32' E 009°58'0 0.0
2014-Jul-21 11:29N 53°32' E 009°58'0 0.0
2014-Jul-21 10:29N 53°32' E 009°58'0 0.0
2014-Jul-21 09:30N 53°32' E 009°58'0 0.0
2014-Jul-21 08:28N 53°32' E 009°58'0 0.0
2014-Jul-21 07:32N 53°32' E 009°58'0 0.0
2014-Jul-21 06:22N 53°32' E 009°58'0 0.0
2014-Jul-21 05:31N 53°32' E 009°58'0 0.0
2014-Jul-21 04:31N 53°32' E 009°58'0 0.0
2014-Jul-21 03:31N 53°32' E 009°58'0 0.0
2014-Jul-21 02:28N 53°32' E 009°58'0 0.0
2014-Jul-21 01:31N 53°32' E 009°58'0 0.0
2014-Jul-21 00:28N 53°32' E 009°58'0 0.0
2014-Jul-20 23:28N 53°32' E 009°58'0 0.0
2014-Jul-20 22:31N 53°32' E 009°58'0 0.0
2014-Jul-20 21:31N 53°32' E 009°58'0 0.0
2014-Jul-20 20:31N 53°32' E 009°58'0 0.0
2014-Jul-20 19:22N 53°32' E 009°58'0 0.0
2014-Jul-20 18:31N 53°32' E 009°58'0 0.0
2014-Jul-20 17:28N 53°32' E 009°58'0 0.0
2014-Jul-20 16:31N 53°32' E 009°58'0 0.0
2014-Jul-20 15:28N 53°32' E 009°58'0 0.0
2014-Jul-20 14:28N 53°32' E 009°58'0 0.0
2014-Jul-20 13:28N 53°32' E 009°58'0 0.0
2014-Jul-20 12:31N 53°32' E 009°58'0 0.0
2014-Jul-20 11:28N 53°32' E 009°58'0 0.0
2014-Jul-20 10:28N 53°32' E 009°58'0 0.0
2014-Jul-20 09:33N 53°32' E 009°58'0 0.0
2014-Jul-20 08:33N 53°32' E 009°58'0 0.0
2014-Jul-20 07:33N 53°32' E 009°58'0 0.0
2014-Jul-20 06:31N 53°32' E 009°58'0 0.0
2014-Jul-20 05:33N 53°32' E 009°58'0 0.0
2014-Jul-20 04:33N 53°32' E 009°58'0 0.0
2014-Jul-20 03:33N 53°32' E 009°58'0 0.0
2014-Jul-20 02:33N 53°32' E 009°58'0 0.0
2014-Jul-20 01:33N 53°32' E 009°58'0 0.0
2014-Jul-20 00:33N 53°32' E 009°58'0 0.0
2014-Jul-19 23:33N 53°32' E 009°58'0 0.0
2014-Jul-19 22:33N 53°32' E 009°58'0 0.0
2014-Jul-19 21:33N 53°32' E 009°58'0 0.0
2014-Jul-19 20:30N 53°32' E 009°58'0 0.0
2014-Jul-19 19:30N 53°32' E 009°58'0 0.0
2014-Jul-19 18:33N 53°32' E 009°58'0 0.0
2014-Jul-19 17:30N 53°32' E 009°58'0 0.0
2014-Jul-19 16:33N 53°32' E 009°58'0 0.0
2014-Jul-19 15:30N 53°32' E 009°58'0 0.0
2014-Jul-19 14:30N 53°32' E 009°58'0 0.0
2014-Jul-19 13:30N 53°32' E 009°58'0 0.0
2014-Jul-19 12:30N 53°32' E 009°58'0 0.0
2014-Jul-19 11:30N 53°32' E 009°58'0 0.0
2014-Jul-19 10:32N 53°32' E 009°58'0 0.0
2014-Jul-19 09:32N 53°32' E 009°58'0 0.0
2014-Jul-19 08:32N 53°32' E 009°58'0 0.0
2014-Jul-19 07:32N 53°32' E 009°58'0 0.0
2014-Jul-19 06:32N 53°32' E 009°58'0 0.0
2014-Jul-19 05:32N 53°32' E 009°58'0 0.0
2014-Jul-19 04:32N 53°32' E 009°58'0 0.0
2014-Jul-19 03:29N 53°32' E 009°58'0 0.0
2014-Jul-19 02:32N 53°32' E 009°58'0 0.0
2014-Jul-19 01:32N 53°32' E 009°58'0 0.0
2014-Jul-19 00:32N 53°32' E 009°58'0 0.0
2014-Jul-18 23:29N 53°32' E 009°58'0 0.0
2014-Jul-18 22:32N 53°32' E 009°58'0 0.0
2014-Jul-18 21:32N 53°32' E 009°58'0 0.0
2014-Jul-18 20:32N 53°32' E 009°58'0 0.0
2014-Jul-18 19:32N 53°32' E 009°58'0 0.0
2014-Jul-18 18:29N 53°32' E 009°58'0 0.0
2014-Jul-18 17:32N 53°32' E 009°58'0 0.0
2014-Jul-18 16:32N 53°32' E 009°58'  
Track history (hours):
 
Tides and Currents Weather Stations Pressure Air Temp Water Temp Dewpoint Dewpoint Depression Visibility Wind Speed Wind Dir Waves Ship Positions

Berta

Last reported at 2014-Jul-28 16:20 UTC. Time now 2014-Jul-28 18:28 UTC.
Position N 58°00' E 006°25'.

Length 107 m; draft 6.1 m.

Type: Cargo ship. MMSI: 304586000.

Date/timePositionNaut miles runAvg speedWind from/ knotsBaromVisibWave heightAir tempDewpointWater temp
2014-Jul-28 16:20N 58°00' E 006°25'13 2.0
2014-Jul-28 09:34N 58°13' E 006°29'1212.1
2014-Jul-28 08:33N 58°19' E 006°09'1111.2
2014-Jul-28 07:33N 58°25' E 005°50'1110.6
2014-Jul-28 06:30N 58°34' E 005°36'1212.9
2014-Jul-28 05:33N 58°44' E 005°25'1313.1
2014-Jul-28 04:33N 58°57' E 005°18'1111.5
2014-Jul-28 03:33N 59°08' E 005°27'1413.7
2014-Jul-28 02:34N 59°17' E 005°46'1312.6
2014-Jul-28 01:33N 59°24' E 006°07'0 0.0
2014-Jul-27 18:15N 59°24' E 006°07'913.0
2014-Jul-27 17:34N 59°19' E 005°52'1414.4
2014-Jul-27 16:33N 59°09' E 005°32'1010.5
2014-Jul-27 15:33N 59°06' E 005°12'1414.0
2014-Jul-27 14:32N 59°19' E 004°60'5612.9
2014-Jul-27 10:14N 60°14' E 005°09'811.6
2014-Jul-27 09:32N 60°23' E 005°10'4 4.3
2014-Jul-27 08:31N 60°23' E 005°19'0 0.0
2014-Jul-27 07:32N 60°23' E 005°19'0 0.0
2014-Jul-27 06:32N 60°23' E 005°19'0 0.0
2014-Jul-27 05:32N 60°23' E 005°19'0 0.0
2014-Jul-27 04:32N 60°23' E 005°19'0 0.0
2014-Jul-27 03:32N 60°23' E 005°19'0 0.0
2014-Jul-27 02:33N 60°23' E 005°19'0 0.0
2014-Jul-27 01:33N 60°23' E 005°19'0 0.0
2014-Jul-27 00:33N 60°23' E 005°19'0 0.0
2014-Jul-26 23:33N 60°23' E 005°19'0 0.0
2014-Jul-26 22:33N 60°23' E 005°19'1 1.0
2014-Jul-26 21:33N 60°24' E 005°17'9 9.0
2014-Jul-26 20:33N 60°16' E 005°10'5312.7
2014-Jul-26 16:24N 59°23' E 004°56'1113.4
2014-Jul-26 15:34N 59°12' E 005°02'9 9.4
2014-Jul-26 14:33N 59°09' E 005°20'1110.9
2014-Jul-26 13:33N 59°20' E 005°18'0 0.0
2014-Jul-26 12:21N 59°20' E 005°18'0 0.0
2014-Jul-26 11:24N 59°20' E 005°18'0 0.0
2014-Jul-26 10:27N 59°20' E 005°18'0 0.0
2014-Jul-26 09:30N 59°20' E 005°18'0 0.0
2014-Jul-26 08:21N 59°20' E 005°18'0 0.0
2014-Jul-26 07:30N 59°20' E 005°18'0 0.0
2014-Jul-26 06:12N 59°20' E 005°18'2 2.8
2014-Jul-26 05:34N 59°19' E 005°20'1211.9
2014-Jul-26 04:34N 59°08' E 005°27'1212.1
2014-Jul-26 03:33N 58°56' E 005°34'1 0.9
2014-Jul-26 02:31N 58°55' E 005°35'0 0.0
2014-Jul-26 01:31N 58°55' E 005°35'0 0.0
2014-Jul-26 00:31N 58°55' E 005°35'0 0.0
2014-Jul-25 23:31N 58°55' E 005°35'0 0.5
2014-Jul-25 22:33N 58°56' E 005°35'1010.4
2014-Jul-25 21:33N 58°47' E 005°25'1413.8
2014-Jul-25 20:33N 58°33' E 005°22'1313.0
2014-Jul-25 19:33N 58°20' E 005°27'1413.6
2014-Jul-25 18:34N 58°07' E 005°34'20513.3
2014-Jul-25 03:06N 54°49' E 007°09'713.9
2014-Jul-25 02:34N 54°41' E 007°13'1414.0
2014-Jul-25 01:33N 54°28' E 007°20'1414.3
2014-Jul-25 00:33N 54°14' E 007°27'1413.8
2014-Jul-24 23:33N 54°02' E 007°38'1110.8
2014-Jul-24 22:33N 53°53' E 007°48'1313.2
2014-Jul-24 21:33N 53°48' E 008°09'1212.3
2014-Jul-24 20:33N 53°39' E 008°24'6 6.3
2014-Jul-24 19:32N 53°35' E 008°32'0 0.0
2014-Jul-24 18:32N 53°35' E 008°32'0 0.0
2014-Jul-24 17:32N 53°35' E 008°32'0 0.0
2014-Jul-24 16:33N 53°35' E 008°32'0 0.0
2014-Jul-24 15:33N 53°35' E 008°32'5 4.6
2014-Jul-24 14:33N 53°38' E 008°26'1111.4
2014-Jul-24 13:33N 53°46' E 008°11'1211.7
2014-Jul-24 12:33N 53°52' E 007°54'4 1.7
2014-Jul-24 10:19N 53°54' E 007°49'0 0.1
2014-Jul-24 09:16N 53°54' E 007°49'9 8.4
2014-Jul-24 08:14N 53°59' E 007°37'6 9.0
2014-Jul-24 07:33N 54°01' E 007°47'1110.9
2014-Jul-24 06:33N 54°01' E 008°05'1010.3
2014-Jul-24 05:33N 53°60' E 008°22'1211.9
2014-Jul-24 04:33N 53°55' E 008°41'1313.5
2014-Jul-24 03:33N 53°52' E 009°03'1413.5
2014-Jul-24 02:32N 53°46' E 009°24'1212.6
2014-Jul-24 01:33N 53°36' E 009°36'9 9.3
2014-Jul-24 00:33N 53°33' E 009°51'2 2.3
2014-Jul-23 23:32N 53°32' E 009°55'0 0.0
2014-Jul-23 22:32N 53°32' E 009°55'0 0.0
2014-Jul-23 21:29N 53°32' E 009°55'0 0.0
2014-Jul-23 20:32N 53°32' E 009°55'0 0.0
2014-Jul-23 19:29N 53°32' E 009°55'0 0.0
2014-Jul-23 18:29N 53°32' E 009°55'1 0.9
2014-Jul-23 17:33N 53°32' E 009°56'1 1.0
2014-Jul-23 16:28N 53°32' E 009°58'0 0.0
2014-Jul-23 15:32N 53°32' E 009°58'0 0.0
2014-Jul-23 14:32N 53°32' E 009°58'0 0.0
2014-Jul-23 13:30N 53°32' E 009°58'0 0.0
2014-Jul-23 12:33N 53°32' E 009°58'0 0.0
2014-Jul-23 11:30N 53°32' E 009°58'0 0.0
2014-Jul-23 10:28N 53°32' E 009°58'0 0.0
2014-Jul-23 09:28N 53°32' E 009°58'0 0.0
2014-Jul-23 08:28N 53°32' E 009°58'0 0.0
2014-Jul-23 07:28N 53°32' E 009°58'0 0.0
2014-Jul-23 06:28N 53°32' E 009°58'0 0.0
2014-Jul-23 05:31N 53°32' E 009°58'0 0.0
2014-Jul-23 04:32N 53°32' E 009°58'0 0.0
2014-Jul-23 03:31N 53°32' E 009°58'0 0.0
2014-Jul-23 02:31N 53°32' E 009°58'0 0.0
2014-Jul-23 01:31N 53°32' E 009°58'0 0.0
2014-Jul-23 00:31N 53°32' E 009°58'0 0.0
2014-Jul-22 23:31N 53°32' E 009°58'0 0.0
2014-Jul-22 22:31N 53°32' E 009°58'0 0.0
2014-Jul-22 21:31N 53°32' E 009°58'0 0.0
2014-Jul-22 20:31N 53°32' E 009°58'0 0.0
2014-Jul-22 19:31N 53°32' E 009°58'0 0.0
2014-Jul-22 18:31N 53°32' E 009°58'0 0.0
2014-Jul-22 17:31N 53°32' E 009°58'0 0.0
2014-Jul-22 16:28N 53°32' E 009°58'0 0.0
2014-Jul-22 15:28N 53°32' E 009°58'0 0.0
2014-Jul-22 14:32N 53°32' E 009°58'0 0.0
2014-Jul-22 13:32N 53°32' E 009°58'0 0.0
2014-Jul-22 12:32N 53°32' E 009°58'0 0.0
2014-Jul-22 11:32N 53°32' E 009°58'0 0.0
2014-Jul-22 10:32N 53°32' E 009°58'0 0.0
2014-Jul-22 09:30N 53°32' E 009°58'0 0.0
2014-Jul-22 08:33N 53°32' E 009°58'0 0.0
2014-Jul-22 07:30N 53°32' E 009°58'0 0.0
2014-Jul-22 06:30N 53°32' E 009°58'0 0.0
2014-Jul-22 05:27N 53°32' E 009°58'0 0.0
2014-Jul-22 04:33N 53°32' E 009°58'0 0.0
2014-Jul-22 03:33N 53°32' E 009°58'0 0.0
2014-Jul-22 02:32N 53°32' E 009°58'0 0.0
2014-Jul-22 01:32N 53°32' E 009°58'0 0.0
2014-Jul-22 00:32N 53°32' E 009°58'0 0.0
2014-Jul-21 23:32N 53°32' E 009°58'0 0.0
2014-Jul-21 22:32N 53°32' E 009°58'0 0.0
2014-Jul-21 21:32N 53°32' E 009°58'0 0.0
2014-Jul-21 20:32N 53°32' E 009°58'0 0.0
2014-Jul-21 20:17N 53°32' E 009°58'0 0.0
2014-Jul-21 19:32N 53°32' E 009°58'0 0.0
2014-Jul-21 18:32N 53°32' E 009°58'0 0.0
2014-Jul-21 17:33N 53°32' E 009°58'0 0.0
2014-Jul-21 15:33N 53°32' E 009°58'0 0.0
2014-Jul-21 14:33N 53°32' E 009°58'0 0.0
2014-Jul-21 13:33N 53°32' E 009°58'0 0.0
2014-Jul-21 12:33N 53°32' E 009°58'0 0.0
2014-Jul-21 11:29N 53°32' E 009°58'0 0.0
2014-Jul-21 10:29N 53°32' E 009°58'0 0.0
2014-Jul-21 09:30N 53°32' E 009°58'0 0.0
2014-Jul-21 08:28N 53°32' E 009°58'0 0.0
2014-Jul-21 07:32N 53°32' E 009°58'0 0.0
2014-Jul-21 06:22N 53°32' E 009°58'0 0.0
2014-Jul-21 05:31N 53°32' E 009°58'0 0.0
2014-Jul-21 04:31N 53°32' E 009°58'0 0.0
2014-Jul-21 03:31N 53°32' E 009°58'0 0.0
2014-Jul-21 02:28N 53°32' E 009°58'0 0.0
2014-Jul-21 01:31N 53°32' E 009°58'0 0.0
2014-Jul-21 00:28N 53°32' E 009°58'0 0.0
2014-Jul-20 23:28N 53°32' E 009°58'0 0.0
2014-Jul-20 22:31N 53°32' E 009°58'0 0.0
2014-Jul-20 21:31N 53°32' E 009°58'0 0.0
2014-Jul-20 20:31N 53°32' E 009°58'0 0.0
2014-Jul-20 19:22N 53°32' E 009°58'0 0.0
2014-Jul-20 18:31N 53°32' E 009°58'0 0.0
2014-Jul-20 17:28N 53°32' E 009°58'0 0.0
2014-Jul-20 16:31N 53°32' E 009°58'0 0.0
2014-Jul-20 15:28N 53°32' E 009°58'0 0.0
2014-Jul-20 14:28N 53°32' E 009°58'0 0.0
2014-Jul-20 13:28N 53°32' E 009°58'0 0.0
2014-Jul-20 12:31N 53°32' E 009°58'0 0.0
2014-Jul-20 11:28N 53°32' E 009°58'0 0.0
2014-Jul-20 10:28N 53°32' E 009°58'0 0.0
2014-Jul-20 09:33N 53°32' E 009°58'0 0.0
2014-Jul-20 08:33N 53°32' E 009°58'0 0.0
2014-Jul-20 07:33N 53°32' E 009°58'0 0.0
2014-Jul-20 06:31N 53°32' E 009°58'0 0.0
2014-Jul-20 05:33N 53°32' E 009°58'0 0.0
2014-Jul-20 04:33N 53°32' E 009°58'0 0.0
2014-Jul-20 03:33N 53°32' E 009°58'0 0.0
2014-Jul-20 02:33N 53°32' E 009°58'0 0.0
2014-Jul-20 01:33N 53°32' E 009°58'0 0.0
2014-Jul-20 00:33N 53°32' E 009°58'0 0.0
2014-Jul-19 23:33N 53°32' E 009°58'0 0.0
2014-Jul-19 22:33N 53°32' E 009°58'0 0.0
2014-Jul-19 21:33N 53°32' E 009°58'0 0.0
2014-Jul-19 20:30N 53°32' E 009°58'0 0.0
2014-Jul-19 19:30N 53°32' E 009°58'0 0.0
2014-Jul-19 18:33N 53°32' E 009°58'0 0.0
2014-Jul-19 17:30N 53°32' E 009°58'0 0.0
2014-Jul-19 16:33N 53°32' E 009°58'0 0.0
2014-Jul-19 15:30N 53°32' E 009°58'0 0.0
2014-Jul-19 14:30N 53°32' E 009°58'0 0.0
2014-Jul-19 13:30N 53°32' E 009°58'0 0.0
2014-Jul-19 12:30N 53°32' E 009°58'0 0.0
2014-Jul-19 11:30N 53°32' E 009°58'0 0.0
2014-Jul-19 10:32N 53°32' E 009°58'0 0.0
2014-Jul-19 09:32N 53°32' E 009°58'0 0.0
2014-Jul-19 08:32N 53°32' E 009°58'0 0.0
2014-Jul-19 07:32N 53°32' E 009°58'0 0.0
2014-Jul-19 06:32N 53°32' E 009°58'0 0.0
2014-Jul-19 05:32N 53°32' E 009°58'0 0.0
2014-Jul-19 04:32N 53°32' E 009°58'0 0.0
2014-Jul-19 03:29N 53°32' E 009°58'0 0.0
2014-Jul-19 02:32N 53°32' E 009°58'0 0.0
2014-Jul-19 01:32N 53°32' E 009°58'0 0.0
2014-Jul-19 00:32N 53°32' E 009°58'0 0.0
2014-Jul-18 23:29N 53°32' E 009°58'0 0.0
2014-Jul-18 22:32N 53°32' E 009°58'0 0.0
2014-Jul-18 21:32N 53°32' E 009°58'0 0.0
2014-Jul-18 20:32N 53°32' E 009°58'0 0.0
2014-Jul-18 19:32N 53°32' E 009°58'0 0.0
2014-Jul-18 18:29N 53°32' E 009°58'0 0.0
2014-Jul-18 17:32N 53°32' E 009°58'0 0.0
2014-Jul-18 16:32N 53°32' E 009°58'  

Dump ship's entire track history